Time;durP1;ratioP1;P1;durP2;ratioP2;P2;SDS_P1;SDS_P2;PMS_P1;PMS_P2;Temp;Humidity;BMP_temperature;BMP_pressure;BME280_temperature;BME280_humidity;BME280_pressure;Samples;Min_cycle;Max_cycle;Signal;HPM_P1;HPM_P2
2021/12/09 00:01:26;;;;;;;;;;;20.40;53.00;;;;;;5030801;28;1071;-70
2021/12/09 00:03:52;;;;;;;;;;;20.40;53.00;;;;;;5030900;28;1296;-71
2021/12/09 00:06:22;;;;;;;;;;;20.40;53.00;;;;;;5030858;28;1150;-70
2021/12/09 00:08:47;;;;;;;;;;;20.40;53.00;;;;;;5031994;28;1246;-70
2021/12/09 00:11:13;;;;;;;;;;;20.40;53.60;;;;;;5031865;28;1905;-70
2021/12/09 00:13:38;;;;;;;;;;;20.40;53.10;;;;;;5032238;28;1138;-70
2021/12/09 00:16:04;;;;;;;;;;;20.40;53.10;;;;;;5035829;28;1344;-71
2021/12/09 00:18:29;;;;;;;;;;;20.40;53.10;;;;;;5035854;28;1273;-70
2021/12/09 00:20:55;;;;;;;;;;;20.40;53.10;;;;;;5035275;28;1294;-70
2021/12/09 00:23:20;;;;;;;;;;;20.40;53.10;;;;;;5034581;28;1238;-71
2021/12/09 00:25:46;;;;;;;;;;;20.40;53.10;;;;;;5035583;28;1064;-70
2021/12/09 00:28:11;;;;;;;;;;;20.40;53.10;;;;;;5035765;28;1349;-70
2021/12/09 00:30:36;;;;;;;;;;;20.40;53.10;;;;;;5034063;28;1941;-71
2021/12/09 00:33:03;;;;;;;;;;;20.40;53.10;;;;;;5035480;28;1286;-70
2021/12/09 00:35:34;;;;;;;;;;;20.40;53.10;;;;;;5034428;28;1291;-69
2021/12/09 00:38:04;;;;;;;;;;;20.40;53.10;;;;;;5035668;28;1403;-70
2021/12/09 00:40:30;;;;;;;;;;;20.40;53.10;;;;;;5034317;28;1369;-70
2021/12/09 00:42:55;;;;;;;;;;;20.40;53.10;;;;;;5035095;28;1194;-71
2021/12/09 00:45:21;;;;;;;;;;;20.40;53.10;;;;;;5034047;28;1342;-71
2021/12/09 00:47:47;;;;;;;;;;;20.40;53.10;;;;;;5035682;28;1341;-70
2021/12/09 00:50:12;;;;;;;;;;;20.40;53.10;;;;;;5033668;28;1497;-71
2021/12/09 00:52:37;;;;;;;;;;;20.40;53.10;;;;;;5034925;28;1902;-70
2021/12/09 00:55:03;;;;;;;;;;;20.40;53.10;;;;;;5034055;28;1286;-70
2021/12/09 00:57:29;;;;;;;;;;;20.40;53.10;;;;;;5016098;28;1577;-70
2021/12/09 00:59:54;;;;;;;;;;;20.40;53.70;;;;;;5033838;28;1349;-70
2021/12/09 01:02:20;;;;;;;;;;;20.40;53.10;;;;;;5034794;28;1188;-71
2021/12/09 01:04:45;;;;;;;;;;;20.40;53.10;;;;;;5034760;28;1301;-70
2021/12/09 01:07:11;;;;;;;;;;;20.40;53.10;;;;;;5033794;28;1366;-70
2021/12/09 01:09:36;;;;;;;;;;;20.40;53.10;;;;;;5034793;28;1349;-71
2021/12/09 01:12:02;;;;;;;;;;;20.40;53.10;;;;;;5034694;28;1902;-70
2021/12/09 01:14:28;;;;;;;;;;;20.40;53.10;;;;;;5033584;28;1278;-70
2021/12/09 01:16:53;;;;;;;;;;;20.40;53.10;;;;;;5033405;28;1278;-70
2021/12/09 01:19:18;;;;;;;;;;;20.30;53.10;;;;;;5034362;28;1205;-70
2021/12/09 01:21:44;;;;;;;;;;;20.40;53.20;;;;;;5034572;28;1144;-71
2021/12/09 01:24:09;;;;;;;;;;;20.30;53.10;;;;;;5034459;28;1416;-70
2021/12/09 01:26:35;;;;;;;;;;;20.30;53.10;;;;;;5034763;28;1397;-69
2021/12/09 01:29:07;;;;;;;;;;;20.30;53.10;;;;;;5033313;28;1369;-69
2021/12/09 01:31:37;;;;;;;;;;;20.30;53.20;;;;;;5034163;28;1901;-71
2021/12/09 01:34:03;;;;;;;;;;;20.30;53.20;;;;;;5013997;28;1304;-71
2021/12/09 01:36:29;;;;;;;;;;;20.30;53.20;;;;;;5030897;28;1262;-70
2021/12/09 01:38:55;;;;;;;;;;;20.30;53.20;;;;;;5034683;28;1276;-68
2021/12/09 01:41:20;;;;;;;;;;;20.30;53.30;;;;;;5034338;28;1060;-72
2021/12/09 01:43:46;;;;;;;;;;;20.30;53.30;;;;;;5034798;28;1297;-71
2021/12/09 01:46:12;;;;;;;;;;;20.30;53.20;;;;;;5034096;28;1342;-70
2021/12/09 01:48:38;;;;;;;;;;;20.30;53.30;;;;;;5034640;28;1283;-70
2021/12/09 01:51:03;;;;;;;;;;;20.30;53.30;;;;;;5033698;28;1969;-69
2021/12/09 01:53:29;;;;;;;;;;;20.30;53.20;;;;;;5034374;28;1287;-71
2021/12/09 01:55:58;;;;;;;;;;;20.30;53.30;;;;;;5034036;28;1314;-71
2021/12/09 01:58:23;;;;;;;;;;;20.30;53.30;;;;;;5013089;28;1448;-71
2021/12/09 02:00:49;;;;;;;;;;;20.30;53.40;;;;;;5029656;28;1088;-69
2021/12/09 02:03:14;;;;;;;;;;;20.30;53.30;;;;;;5033827;28;1290;-71
2021/12/09 02:05:41;;;;;;;;;;;20.30;53.30;;;;;;5033822;28;1354;-70
2021/12/09 02:08:11;;;;;;;;;;;20.30;53.30;;;;;;5032737;28;1123;-71
2021/12/09 02:10:37;;;;;;;;;;;20.30;53.30;;;;;;5033686;28;1952;-69
2021/12/09 02:13:02;;;;;;;;;;;20.30;53.40;;;;;;5033492;28;1238;-70
2021/12/09 02:15:28;;;;;;;;;;;20.30;53.40;;;;;;5032126;28;1022;-70
2021/12/09 02:17:55;;;;;;;;;;;20.30;53.40;;;;;;5032407;28;1369;-71
2021/12/09 02:20:20;;;;;;;;;;;20.30;53.40;;;;;;5032300;28;1312;-70
2021/12/09 02:22:47;;;;;;;;;;;20.30;53.40;;;;;;5033416;28;1377;-71
2021/12/09 02:25:16;;;;;;;;;;;20.30;53.40;;;;;;5032402;28;1349;-71
2021/12/09 02:27:42;;;;;;;;;;;20.30;53.40;;;;;;5032417;28;1356;-70
2021/12/09 02:30:07;;;;;;;;;;;20.30;53.40;;;;;;5033010;28;1353;-70
2021/12/09 02:32:32;;;;;;;;;;;20.30;53.50;;;;;;5033029;28;1894;-70
2021/12/09 02:34:58;;;;;;;;;;;20.30;53.40;;;;;;5033294;28;1058;-69
2021/12/09 02:37:23;;;;;;;;;;;20.30;53.50;;;;;;5032819;28;1300;-70
2021/12/09 02:39:49;;;;;;;;;;;20.30;53.50;;;;;;5033081;28;1260;-70
2021/12/09 02:42:14;;;;;;;;;;;20.30;53.50;;;;;;5022483;28;1693;-70
2021/12/09 02:44:40;;;;;;;;;;;20.30;53.50;;;;;;5031327;28;1364;-71
2021/12/09 02:47:06;;;;;;;;;;;20.40;53.40;;;;;;5033915;28;1372;-70
2021/12/09 02:49:31;;;;;;;;;;;20.40;53.30;;;;;;5033761;28;1733;-70
2021/12/09 02:51:57;;;;;;;;;;;20.40;53.20;;;;;;5022834;28;1902;-70
2021/12/09 02:54:22;;;;;;;;;;;20.50;53.10;;;;;;5025207;28;1101;-70
2021/12/09 02:56:48;;;;;;;;;;;20.50;53.00;;;;;;5023097;28;1313;-71
2021/12/09 02:59:14;;;;;;;;;;;20.60;52.90;;;;;;5022183;28;1790;-70
2021/12/09 03:01:47;;;;;;;;;;;20.60;52.70;;;;;;5020316;28;1331;-70
2021/12/09 03:04:13;;;;;;;;;;;20.70;52.60;;;;;;5023859;28;1263;-70
2021/12/09 03:06:39;;;;;;;;;;;20.70;52.50;;;;;;5019536;28;1554;-70
2021/12/09 03:09:05;;;;;;;;;;;20.80;52.40;;;;;;5025386;28;1349;-70
2021/12/09 03:11:31;;;;;;;;;;;20.80;52.30;;;;;;5023372;28;1957;-69
2021/12/09 03:13:56;;;;;;;;;;;20.80;52.20;;;;;;5026952;28;1255;-69
2021/12/09 03:16:22;;;;;;;;;;;20.90;52.30;;;;;;5008511;28;1380;-69
2021/12/09 03:18:50;;;;;;;;;;;20.90;52.20;;;;;;5025768;28;1272;-68
2021/12/09 03:21:18;;;;;;;;;;;20.90;52.10;;;;;;5024127;28;1254;-69
2021/12/09 03:23:43;;;;;;;;;;;20.90;52.00;;;;;;5021335;28;1830;-70
2021/12/09 03:26:09;;;;;;;;;;;21.00;52.00;;;;;;5030888;28;1277;-70
2021/12/09 03:28:34;;;;;;;;;;;21.00;52.00;;;;;;5030618;28;1417;-70
2021/12/09 03:31:00;;;;;;;;;;;21.00;52.00;;;;;;5030264;28;1902;-72
2021/12/09 03:33:25;;;;;;;;;;;21.00;51.90;;;;;;5026018;28;1188;-69
2021/12/09 03:36:00;;;;;;;;;;;21.00;51.90;;;;;;5024161;28;1642;-71
2021/12/09 03:38:26;;;;;;;;;;;21.00;51.80;;;;;;5020206;28;1643;-70
2021/12/09 03:40:51;;;;;;;;;;;21.00;51.80;;;;;;5031250;28;1397;-70
2021/12/09 03:43:17;;;;;;;;;;;21.00;51.80;;;;;;5032611;28;1528;-71
2021/12/09 03:45:42;;;;;;;;;;;21.00;51.80;;;;;;5032688;28;1523;-70
2021/12/09 03:48:08;;;;;;;;;;;21.00;51.80;;;;;;5033931;28;1408;-70
2021/12/09 03:50:33;;;;;;;;;;;21.00;51.70;;;;;;5018885;28;1964;-69
2021/12/09 03:52:58;;;;;;;;;;;21.00;51.70;;;;;;5036410;28;1637;-70
2021/12/09 03:55:24;;;;;;;;;;;21.00;51.70;;;;;;5036767;28;1564;-70
2021/12/09 03:57:49;;;;;;;;;;;21.00;51.70;;;;;;5036605;28;1730;-70
2021/12/09 04:00:15;;;;;;;;;;;21.00;51.70;;;;;;5036582;28;1792;-69
2021/12/09 04:02:40;;;;;;;;;;;21.00;51.70;;;;;;5036362;28;1726;-70
2021/12/09 04:05:07;;;;;;;;;;;21.00;51.70;;;;;;5035380;28;1521;-69
2021/12/09 04:07:32;;;;;;;;;;;21.00;51.80;;;;;;5036512;28;1741;-70
2021/12/09 04:09:58;;;;;;;;;;;21.00;51.80;;;;;;5036271;28;1395;-70
2021/12/09 04:12:23;;;;;;;;;;;21.00;51.80;;;;;;5035889;28;1957;-69
2021/12/09 04:14:49;;;;;;;;;;;21.00;51.80;;;;;;5035234;28;1419;-68
2021/12/09 04:17:14;;;;;;;;;;;21.00;51.80;;;;;;5036295;28;1368;-68
2021/12/09 04:19:46;;;;;;;;;;;21.00;51.80;;;;;;5034898;28;1329;-68
2021/12/09 04:22:13;;;;;;;;;;;21.00;51.90;;;;;;5035851;28;1735;-68
2021/12/09 04:24:38;;;;;;;;;;;21.00;51.90;;;;;;5035662;28;1095;-68
2021/12/09 04:27:04;;;;;;;;;;;21.00;51.90;;;;;;5036190;28;1715;-70
2021/12/09 04:29:29;;;;;;;;;;;21.00;51.90;;;;;;5035917;28;1355;-67
2021/12/09 04:31:54;;;;;;;;;;;20.90;51.90;;;;;;5035631;28;1902;-68
2021/12/09 04:34:20;;;;;;;;;;;20.90;51.90;;;;;;5036090;28;1075;-69
2021/12/09 04:36:45;;;;;;;;;;;20.90;51.90;;;;;;5034760;28;1065;-71
2021/12/09 04:39:11;;;;;;;;;;;20.90;51.90;;;;;;5034617;28;1346;-69
2021/12/09 04:41:36;;;;;;;;;;;20.90;51.90;;;;;;5017836;28;1453;-69
2021/12/09 04:44:02;;;;;;;;;;;20.90;51.90;;;;;;5034680;28;1083;-70
2021/12/09 04:46:27;;;;;;;;;;;20.90;52.00;;;;;;5035881;28;1365;-69
2021/12/09 04:48:53;;;;;;;;;;;20.90;52.00;;;;;;5035674;28;1409;-69
2021/12/09 04:51:18;;;;;;;;;;;20.90;52.00;;;;;;5035287;28;1965;-71
2021/12/09 04:53:44;;;;;;;;;;;20.90;52.00;;;;;;5035516;28;1273;-70
2021/12/09 04:56:09;;;;;;;;;;;20.90;52.00;;;;;;5034263;28;1290;-70
2021/12/09 04:58:34;;;;;;;;;;;20.90;52.00;;;;;;5033895;28;1367;-71
2021/12/09 05:01:01;;;;;;;;;;;20.90;52.00;;;;;;5034975;28;1139;-71
2021/12/09 05:03:26;;;;;;;;;;;20.90;52.00;;;;;;5035539;28;800;-70
2021/12/09 05:05:52;;;;;;;;;;;20.90;52.10;;;;;;5035426;28;1194;-70
2021/12/09 05:08:18;;;;;;;;;;;20.90;52.10;;;;;;5035398;28;1044;-70
2021/12/09 05:13:23;;;;;;;;;;;20.90;52.10;;;;;;5035385;28;1131;-69
2021/12/09 05:15:48;;;;;;;;;;;20.80;52.10;;;;;;5034255;28;1067;-69
2021/12/09 05:18:14;;;;;;;;;;;20.90;52.20;;;;;;5033938;28;1134;-70
2021/12/09 05:20:39;;;;;;;;;;;20.80;52.10;;;;;;5034876;28;1207;-71
2021/12/09 05:23:05;;;;;;;;;;;20.80;52.10;;;;;;5034903;28;1341;-71
2021/12/09 05:25:30;;;;;;;;;;;20.80;52.20;;;;;;5035156;28;1071;-69
2021/12/09 05:27:56;;;;;;;;;;;20.80;52.10;;;;;;5033911;28;1071;-70
2021/12/09 05:30:27;;;;;;;;;;;20.80;52.20;;;;;;5035057;28;1403;-69
2021/12/09 05:32:53;;;;;;;;;;;20.80;52.20;;;;;;5033560;28;1894;-68
2021/12/09 05:35:18;;;;;;;;;;;20.80;52.20;;;;;;5034940;28;1289;-69
2021/12/09 05:37:44;;;;;;;;;;;20.80;52.20;;;;;;5016833;28;1389;-69
2021/12/09 05:40:10;;;;;;;;;;;20.80;52.20;;;;;;5034730;28;1211;-70
2021/12/09 05:42:35;;;;;;;;;;;20.80;52.20;;;;;;5021317;28;1273;-69
2021/12/09 05:45:01;;;;;;;;;;;20.80;52.30;;;;;;5033571;28;1325;-69
2021/12/09 05:47:26;;;;;;;;;;;20.80;52.30;;;;;;5034867;28;1122;-70
2021/12/09 05:49:53;;;;;;;;;;;20.80;52.30;;;;;;5033300;28;1392;-70
2021/12/09 05:52:18;;;;;;;;;;;20.80;52.30;;;;;;5032765;28;1906;-70
2021/12/09 05:54:44;;;;;;;;;;;20.80;52.30;;;;;;5034522;28;1068;-70
2021/12/09 05:57:09;;;;;;;;;;;20.80;52.30;;;;;;5033343;28;1292;-71
2021/12/09 05:59:35;;;;;;;;;;;20.70;52.30;;;;;;5034470;28;1235;-70
2021/12/09 06:02:00;;;;;;;;;;;20.80;52.40;;;;;;5034161;28;957;-71
2021/12/09 06:04:26;;;;;;;;;;;20.70;52.30;;;;;;5034302;28;1077;-71
2021/12/09 06:06:51;;;;;;;;;;;20.70;52.30;;;;;;5034030;28;1162;-70
2021/12/09 06:09:17;;;;;;;;;;;20.70;52.40;;;;;;5033180;28;1201;-71
2021/12/09 06:11:45;;;;;;;;;;;20.70;52.40;;;;;;5033088;28;1953;-71
2021/12/09 06:14:10;;;;;;;;;;;20.70;52.40;;;;;;5032913;28;1262;-70
2021/12/09 06:16:36;;;;;;;;;;;20.70;52.40;;;;;;5034048;28;1392;-70
2021/12/09 06:19:01;;;;;;;;;;;20.70;52.40;;;;;;5032802;28;1369;-69
2021/12/09 06:21:27;;;;;;;;;;;20.70;52.40;;;;;;5033790;28;1302;-70
2021/12/09 06:23:53;;;;;;;;;;;20.70;52.40;;;;;;5034361;28;1262;-70
2021/12/09 06:26:19;;;;;;;;;;;20.70;52.50;;;;;;5033834;28;1303;-69
2021/12/09 06:28:45;;;;;;;;;;;20.70;52.50;;;;;;5034078;28;1422;-69
2021/12/09 06:31:10;;;;;;;;;;;20.70;52.40;;;;;;5033455;28;1894;-69
2021/12/09 06:33:36;;;;;;;;;;;20.70;52.40;;;;;;5033729;28;1413;-69
2021/12/09 06:36:01;;;;;;;;;;;20.70;52.40;;;;;;5033455;28;999;-70
2021/12/09 06:38:26;;;;;;;;;;;20.70;52.40;;;;;;5033875;28;1271;-70
2021/12/09 06:40:52;;;;;;;;;;;20.70;52.40;;;;;;5033432;28;1301;-69
2021/12/09 06:43:17;;;;;;;;;;;20.70;52.30;;;;;;5033543;28;1254;-70
2021/12/09 06:45:43;;;;;;;;;;;20.80;52.40;;;;;;5033669;28;1341;-70
2021/12/09 06:48:08;;;;;;;;;;;20.80;52.30;;;;;;5033722;28;1198;-69
2021/12/09 06:50:34;;;;;;;;;;;20.80;52.30;;;;;;5033209;28;1244;-69
2021/12/09 06:52:59;;;;;;;;;;;20.80;52.30;;;;;;5033148;28;1975;-69
2021/12/09 06:55:25;;;;;;;;;;;20.80;52.20;;;;;;5033383;28;1262;-69
2021/12/09 06:57:50;;;;;;;;;;;20.80;52.20;;;;;;5032181;28;1402;-69
2021/12/09 07:00:34;;;;;;;;;;;20.80;52.20;;;;;;5032038;28;1271;-70
2021/12/09 07:03:00;;;;;;;;;;;20.80;52.20;;;;;;5020511;28;1106;-70
2021/12/09 07:05:26;;;;;;;;;;;20.90;52.20;;;;;;5032040;28;1331;-69
2021/12/09 07:07:51;;;;;;;;;;;20.80;52.20;;;;;;5032161;28;1066;-70
2021/12/09 07:10:17;;;;;;;;;;;20.90;52.20;;;;;;5033054;28;1321;-70
2021/12/09 07:12:42;;;;;;;;;;;20.80;52.10;;;;;;5032894;28;1951;-70
2021/12/09 07:15:08;;;;;;;;;;;20.80;52.20;;;;;;5033070;28;1364;-70
2021/12/09 07:17:34;;;;;;;;;;;20.80;52.10;;;;;;5033055;28;1146;-70
2021/12/09 07:19:59;;;;;;;;;;;20.90;52.20;;;;;;5032737;28;1424;-71
2021/12/09 07:22:25;;;;;;;;;;;20.80;52.10;;;;;;5032331;28;1284;-71
2021/12/09 07:24:50;;;;;;;;;;;20.80;52.10;;;;;;5031716;28;1340;-70
2021/12/09 07:27:16;;;;;;;;;;;20.80;52.10;;;;;;5031858;28;1155;-70
2021/12/09 07:29:41;;;;;;;;;;;20.80;52.10;;;;;;5032724;28;1403;-69
2021/12/09 07:32:07;;;;;;;;;;;20.80;52.20;;;;;;5031272;28;1951;-69
2021/12/09 07:34:33;;;;;;;;;;;20.80;52.20;;;;;;5032818;28;1425;-69
2021/12/09 07:37:03;;;;;;;;;;;20.80;52.20;;;;;;5024027;28;2144;-71
2021/12/09 07:39:29;;;;;;;;;;;20.80;52.30;;;;;;5025524;28;2000;-71
2021/12/09 07:41:56;;;;;;;;;;;20.90;52.40;;;;;;5032645;28;1325;-70
2021/12/09 07:44:22;;;;;;;;;;;21.00;52.20;;;;;;5030748;28;1885;-70
2021/12/09 07:46:48;;;;;;;;;;;21.10;52.20;;;;;;5031414;28;1045;-70
2021/12/09 07:49:14;;;;;;;;;;;21.20;52.00;;;;;;5032989;28;1280;-70
2021/12/09 07:51:39;;;;;;;;;;;21.30;51.80;;;;;;5032423;28;1906;-69
2021/12/09 07:54:05;;;;;;;;;;;21.50;51.70;;;;;;5032596;28;1341;-67
2021/12/09 07:56:30;;;;;;;;;;;21.60;51.40;;;;;;5032789;28;1448;-70
2021/12/09 07:58:56;;;;;;;;;;;21.70;51.10;;;;;;5031781;28;1400;-70
2021/12/09 08:01:21;;;;;;;;;;;21.80;50.90;;;;;;5030798;28;1324;-71
2021/12/09 08:03:47;;;;;;;;;;;22.00;50.70;;;;;;5032944;28;1305;-71
2021/12/09 08:06:14;;;;;;;;;;;22.10;50.40;;;;;;5032501;28;1043;-68
2021/12/09 08:08:39;;;;;;;;;;;22.10;50.20;;;;;;5031595;28;1471;-68
2021/12/09 08:11:06;;;;;;;;;;;22.30;50.00;;;;;;5029780;28;1966;-68
2021/12/09 08:13:32;;;;;;;;;;;22.30;49.80;;;;;;5028297;28;1088;-68
2021/12/09 08:15:58;;;;;;;;;;;22.40;49.60;;;;;;5030850;28;1162;-68
2021/12/09 08:18:27;;;;;;;;;;;22.50;49.40;;;;;;5032246;28;1409;-69
2021/12/09 08:20:57;;;;;;;;;;;22.60;49.30;;;;;;5031667;28;1323;-73
2021/12/09 08:23:22;;;;;;;;;;;22.60;49.10;;;;;;5018089;28;1157;-68
2021/12/09 08:25:48;;;;;;;;;;;22.70;49.10;;;;;;5026137;28;1912;-68
2021/12/09 08:28:13;;;;;;;;;;;22.70;48.90;;;;;;5032136;28;1106;-69
2021/12/09 08:30:39;;;;;;;;;;;22.70;48.80;;;;;;5032217;28;1246;-69
2021/12/09 08:33:05;;;;;;;;;;;22.80;48.80;;;;;;5032230;28;1969;-69
2021/12/09 08:35:30;;;;;;;;;;;22.80;48.70;;;;;;5034955;28;1084;-68
2021/12/09 08:37:58;;;;;;;;;;;22.90;48.70;;;;;;5035047;28;1127;-68
2021/12/09 08:40:24;;;;;;;;;;;22.90;48.70;;;;;;5035941;28;1358;-68
2021/12/09 08:42:49;;;;;;;;;;;22.90;48.60;;;;;;5021250;28;1122;-69
2021/12/09 08:45:15;;;;;;;;;;;22.90;48.60;;;;;;5035667;28;1067;-70
2021/12/09 08:47:41;;;;;;;;;;;23.00;48.60;;;;;;5034596;28;1103;-68
2021/12/09 08:50:07;;;;;;;;;;;23.00;48.60;;;;;;5034401;28;1353;-69
2021/12/09 08:52:33;;;;;;;;;;;23.00;48.50;;;;;;5034306;28;1911;-69
2021/12/09 08:54:58;;;;;;;;;;;23.00;48.50;;;;;;5035890;28;1067;-69
2021/12/09 08:57:24;;;;;;;;;;;23.00;48.50;;;;;;5035584;28;1250;-68
2021/12/09 08:59:49;;;;;;;;;;;23.10;48.50;;;;;;5034774;28;2483;-68
2021/12/09 09:02:15;;;;;;;;;;;23.10;48.40;;;;;;5031403;28;1967;-68
2021/12/09 09:04:40;;;;;;;;;;;23.10;48.40;;;;;;5026954;28;1906;-69
2021/12/09 09:07:06;;;;;;;;;;;23.10;48.50;;;;;;5028323;28;1988;-68
2021/12/09 09:09:36;;;;;;;;;;;23.10;48.50;;;;;;5025273;28;1976;-69
2021/12/09 09:12:02;;;;;;;;;;;23.10;48.50;;;;;;5026410;28;2130;-69
2021/12/09 09:14:27;;;;;;;;;;;23.10;48.60;;;;;;5034004;28;1274;-69
2021/12/09 09:16:53;;;;;;;;;;;23.10;48.60;;;;;;5034799;28;1142;-70
2021/12/09 09:19:18;;;;;;;;;;;23.10;48.60;;;;;;5035092;28;1357;-69
2021/12/09 09:21:44;;;;;;;;;;;23.10;48.70;;;;;;5034672;28;1076;-69
2021/12/09 09:24:09;;;;;;;;;;;23.10;48.70;;;;;;5033981;28;1319;-70
2021/12/09 09:26:35;;;;;;;;;;;23.10;48.80;;;;;;5034822;28;1334;-70
2021/12/09 09:29:00;;;;;;;;;;;23.10;48.90;;;;;;5034959;28;1292;-70
2021/12/09 09:31:29;;;;;;;;;;;23.00;48.90;;;;;;5034535;28;1990;-70
2021/12/09 09:33:54;;;;;;;;;;;23.00;48.90;;;;;;5033657;28;1339;-69
2021/12/09 09:36:19;;;;;;;;;;;23.00;48.90;;;;;;5034802;28;1127;-70
2021/12/09 09:38:45;;;;;;;;;;;23.00;48.90;;;;;;5034783;28;1373;-69
2021/12/09 09:41:14;;;;;;;;;;;23.00;48.90;;;;;;5033206;28;1310;-69
2021/12/09 09:46:15;;;;;;;;;;;22.90;48.90;;;;;;5031766;28;1334;-69
2021/12/09 09:48:41;;;;;;;;;;;22.90;49.10;;;;;;5029624;28;1285;-68
2021/12/09 09:51:07;;;;;;;;;;;22.90;49.10;;;;;;5032851;28;1906;-68
2021/12/09 09:53:33;;;;;;;;;;;22.90;49.20;;;;;;5033427;28;1357;-69
2021/12/09 09:55:58;;;;;;;;;;;22.90;49.20;;;;;;5034204;28;1016;-68
2021/12/09 09:58:25;;;;;;;;;;;22.80;49.20;;;;;;5034494;28;1390;-68
2021/12/09 10:00:50;;;;;;;;;;;22.80;49.20;;;;;;5031693;28;2049;-69
2021/12/09 10:03:17;;;;;;;;;;;22.70;49.40;;;;;;5034454;28;1280;-69
2021/12/09 10:05:46;;;;;;;;;;;22.70;49.40;;;;;;5031606;28;1231;-70
2021/12/09 10:08:13;;;;;;;;;;;22.70;49.50;;;;;;5033883;28;992;-69
2021/12/09 10:10:39;;;;;;;;;;;22.60;49.50;;;;;;5033804;28;1341;-69
2021/12/09 10:13:05;;;;;;;;;;;22.60;49.60;;;;;;5032670;28;1963;-69
2021/12/09 10:15:32;;;;;;;;;;;22.60;49.70;;;;;;5033953;28;1215;-70
2021/12/09 10:17:57;;;;;;;;;;;22.60;49.70;;;;;;5034301;28;1386;-69
2021/12/09 10:20:22;;;;;;;;;;;22.60;49.80;;;;;;5033971;28;1309;-69
2021/12/09 10:22:48;;;;;;;;;;;22.50;49.80;;;;;;5032663;28;1402;-69
2021/12/09 10:25:20;;;;;;;;;;;22.50;49.90;;;;;;5033555;28;1322;-69
2021/12/09 10:27:54;;;;;;;;;;;22.50;50.00;;;;;;5032992;28;1321;-70
2021/12/09 10:30:22;;;;;;;;;;;22.50;50.00;;;;;;5026296;28;1786;-72
2021/12/09 10:32:49;;;;;;;;;;;22.40;50.00;;;;;;5032408;28;1960;-70
2021/12/09 10:35:19;;;;;;;;;;;22.40;50.10;;;;;;5030340;28;1401;-70
2021/12/09 10:37:45;;;;;;;;;;;22.40;50.20;;;;;;5026951;28;1248;-70
2021/12/09 10:40:11;;;;;;;;;;;22.40;50.30;;;;;;5029728;28;1273;-67
2021/12/09 10:42:37;;;;;;;;;;;22.40;50.30;;;;;;5013893;28;1128;-70
2021/12/09 10:45:03;;;;;;;;;;;22.40;50.30;;;;;;5033559;28;1359;-69
2021/12/09 10:50:21;;;;;;;;;;;22.40;50.30;;;;;;5033201;28;1305;-68
2021/12/09 10:52:50;;;;;;;;;;;22.50;50.30;;;;;;5032822;28;1975;-68
2021/12/09 10:55:18;;;;;;;;;;;22.50;50.20;;;;;;5033314;28;1270;-68
2021/12/09 10:57:44;;;;;;;;;;;22.60;50.10;;;;;;5033027;28;1319;-71
2021/12/09 11:00:14;;;;;;;;;;;22.60;50.00;;;;;;5033590;28;1319;-70
2021/12/09 11:02:55;;;;;;;;;;;22.70;49.90;;;;;;5033086;28;1064;-69
2021/12/09 11:05:21;;;;;;;;;;;22.80;49.90;;;;;;5033303;28;1191;-68
2021/12/09 11:07:46;;;;;;;;;;;22.80;49.50;;;;;;5033315;28;1282;-68
2021/12/09 11:10:13;;;;;;;;;;;22.70;46.90;;;;;;5032894;28;1321;-68
2021/12/09 11:12:38;;;;;;;;;;;22.60;45.20;;;;;;5033486;28;1968;-68
2021/12/09 11:15:04;;;;;;;;;;;22.60;44.10;;;;;;5032754;28;1243;-69
2021/12/09 11:17:33;;;;;;;;;;;22.50;41.90;;;;;;5031944;28;1258;-69
2021/12/09 11:19:59;;;;;;;;;;;22.40;41.10;;;;;;5028238;28;1482;-70
2021/12/09 11:22:29;;;;;;;;;;;22.40;41.40;;;;;;5030268;28;1140;-69
2021/12/09 11:24:59;;;;;;;;;;;22.40;41.80;;;;;;5032714;28;1046;-71
2021/12/09 11:27:26;;;;;;;;;;;22.40;42.30;;;;;;5032988;28;1071;-69
2021/12/09 11:29:56;;;;;;;;;;;22.40;42.70;;;;;;5032747;28;1314;-70
2021/12/09 11:32:32;;;;;;;;;;;22.40;43.20;;;;;;5030979;28;1894;-69
2021/12/09 11:35:05;;;;;;;;;;;22.50;43.60;;;;;;5015624;28;1307;-70
2021/12/09 11:39:57;;;;;;;;;;;22.50;44.10;;;;;;5031202;28;1317;-69
2021/12/09 11:42:28;;;;;;;;;;;22.50;44.30;;;;;;5019718;28;1205;-69
2021/12/09 11:44:53;;;;;;;;;;;22.50;44.50;;;;;;5032193;28;1389;-70
2021/12/09 11:47:19;;;;;;;;;;;22.40;44.80;;;;;;5032192;28;1122;-70
2021/12/09 11:49:44;;;;;;;;;;;22.50;45.00;;;;;;5032102;28;1346;-71
2021/12/09 11:52:11;;;;;;;;;;;22.50;45.20;;;;;;5023413;28;1906;-68
2021/12/09 11:54:37;;;;;;;;;;;22.40;45.50;;;;;;5029342;28;1070;-69
2021/12/09 11:57:28;;;;;;;;;;;22.40;45.60;;;;;;5032072;28;1138;-68
2021/12/09 12:11:28;;;;;;;;;;;22.30;46.50;;;;;;5029062;28;1910;-69
2021/12/09 12:14:00;;;;;;;;;;;22.30;46.70;;;;;;5036192;28;1294;-70
2021/12/09 12:16:27;;;;;;;;;;;22.30;46.90;;;;;;5035133;28;1044;-71
2021/12/09 12:19:06;;;;;;;;;;;22.20;46.90;;;;;;5035975;28;1280;-70
2021/12/09 12:34:55;;;;;;;;;;;22.10;48.20;;;;;;5036295;28;1312;-70
2021/12/09 12:40:33;;;;;;;;;;;22.10;47.80;;;;;;5036381;28;1319;-71
2021/12/09 12:43:06;;;;;;;;;;;22.10;47.90;;;;;;5035310;28;1200;-69
2021/12/09 12:48:28;;;;;;;;;;;22.00;48.10;;;;;;5034320;28;1374;-71
2021/12/09 12:51:08;;;;;;;;;;;22.00;48.20;;;;;;5034963;28;1227;-70
2021/12/09 12:53:38;;;;;;;;;;;22.00;48.20;;;;;;5035675;28;1409;-70
2021/12/09 12:56:11;;;;;;;;;;;22.00;48.30;;;;;;5028194;28;1267;-71
2021/12/09 12:58:36;;;;;;;;;;;22.00;48.40;;;;;;5025203;28;1261;-70
2021/12/09 13:01:17;;;;;;;;;;;22.00;48.40;;;;;;5029660;28;1347;-70
2021/12/09 13:03:48;;;;;;;;;;;21.90;48.50;;;;;;5029247;28;1247;-70
2021/12/09 13:06:37;;;;;;;;;;;21.90;48.60;;;;;;5032303;28;1291;-70
2021/12/09 13:09:19;;;;;;;;;;;21.90;48.60;;;;;;5035300;28;1382;-70
2021/12/09 13:11:52;;;;;;;;;;;21.90;48.70;;;;;;5034777;28;1977;-70
2021/12/09 13:14:25;;;;;;;;;;;21.90;48.70;;;;;;5035517;28;1048;-70
2021/12/09 13:17:11;;;;;;;;;;;21.90;48.80;;;;;;5034871;28;1318;-70
2021/12/09 13:19:39;;;;;;;;;;;21.90;48.80;;;;;;5025570;28;1306;-70
2021/12/09 13:22:10;;;;;;;;;;;21.80;48.80;;;;;;5027007;28;1141;-69
2021/12/09 13:25:05;;;;;;;;;;;21.80;48.90;;;;;;5032138;28;1347;-69
2021/12/09 13:27:32;;;;;;;;;;;21.80;49.00;;;;;;5032186;28;1145;-69
2021/12/09 13:31:02;;;;;;;;;;;21.80;49.00;;;;;;5033390;28;1376;-69
2021/12/09 13:36:07;;;;;;;;;;;21.80;49.10;;;;;;5031320;28;1241;-69
2021/12/09 13:47:44;;;;;;;;;;;21.70;49.30;;;;;;5033428;28;1054;-71
2021/12/09 13:49:54;;;;;;;;;;;21.70;49.40;;;;;;5018722;28;1354;-70
2021/12/09 13:55:17;;;;;;;;;;;21.70;49.50;;;;;;5033249;28;1257;-71
2021/12/09 13:57:44;;;;;;;;;;;21.70;49.50;;;;;;5034063;28;1121;-71
2021/12/09 14:00:27;;;;;;;;;;;21.60;49.50;;;;;;5034389;28;1500;-71
2021/12/09 14:02:54;;;;;;;;;;;21.60;49.60;;;;;;5033957;28;1260;-71
2021/12/09 14:05:19;;;;;;;;;;;21.60;49.70;;;;;;5032907;28;1087;-71
2021/12/09 14:07:57;;;;;;;;;;;21.60;49.70;;;;;;5034315;28;1302;-71
2021/12/09 14:10:27;;;;;;;;;;;21.60;49.70;;;;;;5034156;28;1342;-70
2021/12/09 14:12:59;;;;;;;;;;;21.60;49.80;;;;;;5034475;28;1957;-70
2021/12/09 14:15:44;;;;;;;;;;;21.60;49.90;;;;;;5034025;28;1099;-70
2021/12/09 14:18:20;;;;;;;;;;;21.60;49.80;;;;;;5033112;28;1287;-71
2021/12/09 14:20:46;;;;;;;;;;;21.60;49.90;;;;;;5020964;28;1084;-72
2021/12/09 14:23:12;;;;;;;;;;;21.50;49.80;;;;;;5032651;28;1449;-71
2021/12/09 14:25:37;;;;;;;;;;;21.50;49.90;;;;;;5032888;28;1266;-70
2021/12/09 14:28:09;;;;;;;;;;;21.50;49.90;;;;;;5033723;28;1086;-70
2021/12/09 14:30:35;;;;;;;;;;;21.50;49.90;;;;;;5032841;28;1267;-71
2021/12/09 14:33:00;;;;;;;;;;;21.50;50.00;;;;;;5031185;28;1954;-70
2021/12/09 14:35:33;;;;;;;;;;;21.50;50.00;;;;;;5032546;28;1257;-70
2021/12/09 14:37:59;;;;;;;;;;;21.50;50.10;;;;;;5032548;28;1123;-72
2021/12/09 14:40:32;;;;;;;;;;;21.50;50.10;;;;;;5032402;28;1286;-71
2021/12/09 14:42:59;;;;;;;;;;;21.50;50.10;;;;;;5020306;28;1204;-71
2021/12/09 14:45:25;;;;;;;;;;;21.40;50.20;;;;;;5032340;28;1367;-71
2021/12/09 14:48:11;;;;;;;;;;;21.40;50.20;;;;;;5032243;28;1092;-71
2021/12/09 14:50:38;;;;;;;;;;;21.40;50.20;;;;;;5032967;28;1327;-71
2021/12/09 14:53:04;;;;;;;;;;;21.40;50.30;;;;;;5031731;28;1985;-71
2021/12/09 14:55:29;;;;;;;;;;;21.40;50.30;;;;;;5033438;28;977;-71
2021/12/09 14:57:55;;;;;;;;;;;21.40;50.40;;;;;;5031773;28;1323;-72
2021/12/09 15:00:38;;;;;;;;;;;21.40;50.40;;;;;;5032355;28;1318;-71
2021/12/09 15:03:04;;;;;;;;;;;21.30;50.40;;;;;;5032438;28;1319;-71
2021/12/09 15:05:32;;;;;;;;;;;21.30;50.50;;;;;;5031701;28;1268;-69
2021/12/09 15:08:20;;;;;;;;;;;21.30;50.50;;;;;;5032701;28;1332;-70
2021/12/09 15:10:47;;;;;;;;;;;21.30;50.60;;;;;;5024211;28;1076;-71
2021/12/09 15:13:13;;;;;;;;;;;21.30;50.60;;;;;;5032028;28;1930;-70
2021/12/09 15:15:39;;;;;;;;;;;21.30;50.60;;;;;;5033184;28;1433;-70
2021/12/09 15:18:06;;;;;;;;;;;21.30;50.70;;;;;;5031932;28;1104;-69
2021/12/09 15:20:42;;;;;;;;;;;21.30;50.70;;;;;;5033188;28;1300;-71
2021/12/09 15:23:10;;;;;;;;;;;21.30;50.70;;;;;;5032398;28;1016;-72
2021/12/09 15:25:40;;;;;;;;;;;21.30;50.70;;;;;;5031801;28;1326;-70
2021/12/09 15:28:06;;;;;;;;;;;21.20;50.70;;;;;;5029812;28;2149;-70